createdAt,value
2023-03-05T00:01:30.627Z,12.53
2023-03-05T00:03:58.941Z,13.57
2023-03-05T00:06:28.974Z,13.67
2023-03-05T00:08:58.621Z,13.40
2023-03-05T00:11:29.709Z,12.87
2023-03-05T00:14:00.050Z,12.73
2023-03-05T00:16:29.908Z,13.43
2023-03-05T00:18:59.676Z,13.10
2023-03-05T00:21:29.341Z,13.03
2023-03-05T00:24:01.016Z,12.67
2023-03-05T00:26:30.888Z,13.00
2023-03-05T00:29:00.237Z,11.33
2023-03-05T00:31:31.297Z,13.50
2023-03-05T00:34:01.674Z,13.27
2023-03-05T00:36:30.397Z,14.73
2023-03-05T00:38:59.059Z,15.77
2023-03-05T00:41:27.407Z,13.80
2023-03-05T00:43:55.409Z,13.70
2023-03-05T00:46:27.556Z,13.60
2023-03-05T00:48:56.072Z,12.83
2023-03-05T00:51:24.545Z,14.17
2023-03-05T00:53:52.609Z,13.33
2023-03-05T00:56:20.635Z,13.13
2023-03-05T00:58:48.829Z,12.87
2023-03-05T01:01:17.209Z,12.77
2023-03-05T01:03:46.754Z,13.27
2023-03-05T01:06:16.606Z,12.43
2023-03-05T01:08:45.653Z,12.17
2023-03-05T01:11:13.717Z,13.40
2023-03-05T01:13:42.323Z,12.70
2023-03-05T01:16:10.585Z,13.47
2023-03-05T01:18:39.382Z,13.47
2023-03-05T01:21:09.241Z,13.70
2023-03-05T01:23:37.580Z,13.30
2023-03-05T01:26:06.335Z,14.00
2023-03-05T01:28:34.307Z,15.00
2023-03-05T01:31:02.418Z,13.80
2023-03-05T01:33:30.411Z,13.97
2023-03-05T01:35:58.470Z,12.53
2023-03-05T01:38:27.932Z,13.13
2023-03-05T01:40:55.952Z,13.10
2023-03-05T01:43:27.018Z,14.20
2023-03-05T01:46:28.118Z,13.20
2023-03-05T01:49:02.480Z,13.03
2023-03-05T01:51:35.033Z,11.63
2023-03-05T01:54:08.313Z,11.83
2023-03-05T01:56:37.173Z,12.73
2023-03-05T01:59:05.497Z,13.90
2023-03-05T02:01:38.050Z,13.90
2023-03-05T02:04:07.738Z,12.70
2023-03-05T02:06:36.206Z,12.93
2023-03-05T02:09:05.588Z,12.20
2023-03-05T02:11:34.927Z,12.00
2023-03-05T02:14:03.420Z,11.90
2023-03-05T02:16:36.959Z,12.80
2023-03-05T02:19:06.408Z,12.17
2023-03-05T02:21:41.197Z,12.63
2023-03-05T02:24:12.939Z,12.47
2023-03-05T02:26:41.100Z,12.53
2023-03-05T02:29:11.604Z,12.37
2023-03-05T02:31:40.176Z,13.03
2023-03-05T02:34:08.501Z,13.37
2023-03-05T02:36:36.563Z,13.33
2023-03-05T02:39:06.016Z,13.60
2023-03-05T02:41:34.134Z,13.50
2023-03-05T02:44:02.472Z,14.27
2023-03-05T02:46:30.445Z,14.50
2023-03-05T02:48:58.392Z,14.97
2023-03-05T02:51:26.378Z,14.20
2023-03-05T02:53:54.510Z,15.37
2023-03-05T02:56:23.912Z,16.23
2023-03-05T02:58:52.026Z,14.40
2023-03-05T03:01:20.012Z,14.17
2023-03-05T03:03:48.021Z,14.30
2023-03-05T03:06:15.982Z,13.97
2023-03-05T03:08:43.911Z,13.77
2023-03-05T03:11:13.393Z,14.07
2023-03-05T03:13:43.234Z,14.07
2023-03-05T03:16:14.026Z,12.77
2023-03-05T03:18:42.349Z,13.20
2023-03-05T03:21:10.503Z,12.70
2023-03-05T03:23:38.533Z,13.23
2023-03-05T03:26:07.270Z,13.47
2023-03-05T03:28:35.310Z,12.90
2023-03-05T03:31:04.952Z,13.83
2023-03-05T03:33:33.146Z,13.90
2023-03-05T03:36:01.242Z,13.73
2023-03-05T03:38:29.219Z,12.90
2023-03-05T03:40:57.170Z,12.93
2023-03-05T03:43:25.238Z,11.60
2023-03-05T03:45:53.315Z,12.60
2023-03-05T03:48:22.686Z,13.00
2023-03-05T03:50:50.623Z,13.00
2023-03-05T03:53:18.609Z,13.30
2023-03-05T03:55:46.702Z,13.27
2023-03-05T03:58:15.063Z,13.53
2023-03-05T04:00:43.392Z,13.07
2023-03-05T04:03:11.355Z,13.10
2023-03-05T04:05:40.736Z,12.87
2023-03-05T04:08:12.127Z,14.10
2023-03-05T04:10:40.697Z,12.83
2023-03-05T04:13:08.945Z,12.67
2023-03-05T04:15:37.070Z,13.37
2023-03-05T04:18:05.273Z,12.23
2023-03-05T04:20:33.274Z,11.30
2023-03-05T04:23:02.668Z,11.03
2023-03-05T04:25:30.627Z,11.00
2023-03-05T04:27:58.585Z,12.70
2023-03-05T04:30:26.589Z,13.70
2023-03-05T04:32:54.594Z,13.57
2023-03-05T04:35:22.631Z,13.20
2023-03-05T04:37:50.982Z,14.40
2023-03-05T04:40:20.779Z,14.83
2023-03-05T04:42:48.971Z,12.90
2023-03-05T04:45:17.348Z,13.27
2023-03-05T04:47:45.533Z,14.00
2023-03-05T04:50:14.241Z,14.30
2023-03-05T04:52:43.758Z,14.07
2023-03-05T04:55:13.542Z,14.27
2023-03-05T04:57:43.482Z,13.73
2023-03-05T05:00:15.317Z,13.97
2023-03-05T05:02:44.359Z,14.53
2023-03-05T05:05:14.540Z,13.63
2023-03-05T05:07:42.859Z,13.73
2023-03-05T05:10:12.884Z,13.60
2023-03-05T05:12:42.643Z,13.67
2023-03-05T05:15:12.714Z,13.50
2023-03-05T05:17:41.419Z,14.40
2023-03-05T05:20:12.039Z,13.47
2023-03-05T05:22:40.042Z,14.00
2023-03-05T05:25:08.412Z,14.43
2023-03-05T05:27:36.404Z,14.77
2023-03-05T05:30:06.574Z,14.43
2023-03-05T05:32:35.077Z,14.53
2023-03-05T05:35:03.918Z,13.97
2023-03-05T05:37:31.975Z,13.87
2023-03-05T05:40:00.088Z,13.50
2023-03-05T05:42:29.523Z,13.27
2023-03-05T05:44:57.548Z,12.83
2023-03-05T05:47:27.042Z,14.00
2023-03-05T05:49:54.976Z,13.07
2023-03-05T05:52:23.375Z,13.13
2023-03-05T05:54:51.362Z,14.30
2023-03-05T05:57:19.392Z,12.83
2023-03-05T05:59:47.402Z,14.20
2023-03-05T06:02:15.457Z,14.17
2023-03-05T06:04:44.973Z,14.77
2023-03-05T06:07:12.958Z,14.17
2023-03-05T06:09:40.975Z,14.47
2023-03-05T06:12:09.407Z,14.17
2023-03-05T06:14:37.365Z,14.40
2023-03-05T06:17:05.387Z,13.27
2023-03-05T06:19:33.538Z,12.17
2023-03-05T06:22:02.908Z,13.97
2023-03-05T06:24:30.871Z,14.20
2023-03-05T06:26:58.847Z,14.07
2023-03-05T06:29:26.881Z,14.60
2023-03-05T06:31:54.924Z,13.13
2023-03-05T06:34:22.886Z,14.03
2023-03-05T06:36:51.134Z,14.67
2023-03-05T06:39:20.487Z,14.73
2023-03-05T06:41:52.150Z,14.90
2023-03-05T06:44:20.397Z,15.00
2023-03-05T06:46:48.346Z,14.10
2023-03-05T06:49:16.330Z,14.03
2023-03-05T06:51:44.392Z,13.93
2023-03-05T06:54:15.431Z,15.10
2023-03-05T06:56:47.094Z,14.50
2023-03-05T06:59:16.416Z,15.33
2023-03-05T07:01:44.605Z,15.10
2023-03-05T07:04:13.298Z,14.10
2023-03-05T07:06:42.734Z,14.40
2023-03-05T07:09:14.429Z,13.77
2023-03-05T07:11:42.520Z,13.30
2023-03-05T07:14:11.880Z,14.07
2023-03-05T07:16:39.924Z,14.73
2023-03-05T07:19:10.916Z,14.13
2023-03-05T07:21:40.059Z,14.60
2023-03-05T07:24:08.946Z,14.60
2023-03-05T07:26:37.258Z,13.37
2023-03-05T07:29:05.542Z,13.33
2023-03-05T07:31:35.065Z,13.73
2023-03-05T07:34:04.512Z,13.90
2023-03-05T07:36:35.065Z,14.43
2023-03-05T07:39:04.836Z,13.90
2023-03-05T07:41:33.137Z,13.87
2023-03-05T07:44:01.448Z,14.53
2023-03-05T07:46:32.006Z,14.20
2023-03-05T07:49:01.502Z,14.10
2023-03-05T07:51:29.815Z,13.67
2023-03-05T07:53:59.535Z,14.50
2023-03-05T07:56:31.862Z,14.17
2023-03-05T07:59:00.220Z,15.03
2023-03-05T08:01:28.285Z,14.83
2023-03-05T08:03:56.293Z,13.23
2023-03-05T08:06:25.755Z,13.77
2023-03-05T08:08:53.737Z,13.00
2023-03-05T08:11:21.734Z,13.02
2023-03-05T08:13:49.834Z,13.32
2023-03-05T08:16:20.350Z,13.98
2023-03-05T08:18:49.319Z,14.35
2023-03-05T08:21:19.230Z,13.77
2023-03-05T08:23:49.118Z,13.13
2023-03-05T08:26:21.258Z,13.07
2023-03-05T08:28:50.043Z,13.95
2023-03-05T08:31:19.527Z,14.27
2023-03-05T08:33:47.502Z,13.77
2023-03-05T08:36:15.549Z,14.55
2023-03-05T08:38:44.666Z,15.13
2023-03-05T08:41:14.610Z,13.68
2023-03-05T08:43:43.431Z,13.63
2023-03-05T08:46:12.735Z,14.60
2023-03-05T08:48:41.338Z,15.18
2023-03-05T08:51:11.668Z,13.75
2023-03-05T08:53:40.165Z,14.50
2023-03-05T08:56:09.436Z,14.82
2023-03-05T08:58:38.845Z,13.65
2023-03-05T09:01:07.856Z,14.15
2023-03-05T09:03:36.047Z,14.10
2023-03-05T09:06:07.038Z,17.33
2023-03-05T09:08:35.631Z,12.27
2023-03-05T09:11:04.326Z,13.93
2023-03-05T09:13:32.351Z,13.88
2023-03-05T09:16:03.565Z,13.65
2023-03-05T09:18:32.325Z,14.73
2023-03-05T09:21:04.902Z,14.68
2023-03-05T09:23:32.899Z,15.85
2023-03-05T09:26:00.858Z,13.48
2023-03-05T09:28:29.027Z,13.63
2023-03-05T09:30:57.015Z,13.65
2023-03-05T09:33:26.339Z,13.10
2023-03-05T09:35:54.423Z,12.60
2023-03-05T09:38:22.434Z,13.23
2023-03-05T09:40:56.905Z,15.00
2023-03-05T09:43:35.756Z,12.02
2023-03-05T09:46:17.186Z,11.93
2023-03-05T09:48:53.105Z,12.27
2023-03-05T09:51:26.935Z,12.55
2023-03-05T09:54:04.166Z,12.43
2023-03-05T09:56:36.149Z,13.02
2023-03-05T09:59:15.553Z,12.88
2023-03-05T10:01:45.055Z,12.50
2023-03-05T10:04:18.710Z,12.40
2023-03-05T10:06:52.002Z,11.90
2023-03-05T10:09:32.920Z,12.60
2023-03-05T10:12:04.473Z,13.32
2023-03-05T10:14:35.246Z,12.85
2023-03-05T10:17:40.218Z,12.40
2023-03-05T10:20:27.024Z,12.55
2023-03-05T10:23:14.056Z,12.20
2023-03-05T10:26:03.907Z,11.52
2023-03-05T10:28:40.972Z,11.73
2023-03-05T10:31:35.368Z,12.25
2023-03-05T10:34:21.280Z,11.65
2023-03-05T10:37:03.848Z,11.55
2023-03-05T10:39:51.372Z,11.73
2023-03-05T10:42:31.103Z,12.15
2023-03-05T10:45:00.693Z,11.55
2023-03-05T10:47:32.899Z,12.60
2023-03-05T10:50:01.112Z,12.32
2023-03-05T10:52:36.366Z,11.82
2023-03-05T10:55:13.405Z,12.10
2023-03-05T10:57:41.504Z,12.57
2023-03-05T11:00:19.570Z,12.77
2023-03-05T11:02:59.600Z,12.15
2023-03-05T11:05:42.117Z,14.70
2023-03-05T11:08:31.161Z,13.20
2023-03-05T11:11:15.482Z,12.63
2023-03-05T11:13:56.007Z,12.70
2023-03-05T11:16:27.087Z,13.00
2023-03-05T11:19:18.685Z,13.25
2023-03-05T11:21:47.966Z,12.93
2023-03-05T11:24:19.867Z,13.10
2023-03-05T11:26:50.642Z,13.43
2023-03-05T11:29:22.903Z,12.70
2023-03-05T11:31:51.542Z,13.57
2023-03-05T11:34:35.190Z,14.00
2023-03-05T11:37:08.065Z,14.68
2023-03-05T11:39:40.249Z,14.15
2023-03-05T11:42:14.189Z,13.82
2023-03-05T11:44:48.234Z,14.73
2023-03-05T11:47:27.434Z,14.55
2023-03-05T11:50:02.315Z,14.77
2023-03-05T11:52:35.151Z,15.00
2023-03-05T11:55:08.739Z,14.40
2023-03-05T11:57:44.871Z,14.43
2023-03-05T12:00:17.537Z,15.38
2023-03-05T12:02:49.084Z,14.70
2023-03-05T12:05:18.247Z,15.02
2023-03-05T12:07:50.049Z,14.95
2023-03-05T12:10:22.205Z,16.08
2023-03-05T12:12:55.481Z,16.00
2023-03-05T12:15:57.479Z,16.08
2023-03-05T12:18:37.481Z,15.35
2023-03-05T12:21:09.143Z,15.57
2023-03-05T12:23:48.444Z,14.45
2023-03-05T12:26:17.968Z,16.30
2023-03-05T12:28:59.553Z,15.98
2023-03-05T12:31:35.563Z,16.70
2023-03-05T12:34:33.195Z,15.45
2023-03-05T12:37:01.280Z,16.10
2023-03-05T12:39:58.656Z,16.33
2023-03-05T12:42:48.773Z,17.20
2023-03-05T12:45:35.350Z,16.85
2023-03-05T12:48:40.269Z,16.10
2023-03-05T12:51:13.802Z,16.83
2023-03-05T12:53:41.926Z,16.60
2023-03-05T12:56:20.941Z,16.38
2023-03-05T12:58:54.019Z,17.05
2023-03-05T13:01:39.258Z,16.98
2023-03-05T13:04:11.136Z,17.23
2023-03-05T13:06:40.459Z,16.38
2023-03-05T13:09:16.883Z,15.98
2023-03-05T13:11:48.266Z,16.67
2023-03-05T13:14:40.723Z,18.08
2023-03-05T13:17:35.793Z,16.02
2023-03-05T13:20:24.704Z,16.20
2023-03-05T13:23:04.792Z,18.00
2023-03-05T13:25:32.784Z,16.60
2023-03-05T13:28:04.336Z,18.10
2023-03-05T13:30:34.854Z,16.40
2023-03-05T13:33:05.420Z,16.95
2023-03-05T13:35:34.732Z,16.90
2023-03-05T13:38:03.333Z,17.60
2023-03-05T13:40:33.335Z,17.65
2023-03-05T13:43:12.162Z,16.77
2023-03-05T13:45:44.110Z,16.30
2023-03-05T13:48:20.649Z,16.20
2023-03-05T13:50:55.853Z,15.68
2023-03-05T13:53:26.240Z,16.90
2023-03-05T13:55:55.907Z,10.93
2023-03-05T13:58:48.743Z,17.38
2023-03-05T14:01:27.126Z,16.15
2023-03-05T14:03:58.011Z,15.70
2023-03-05T14:06:29.217Z,17.33
2023-03-05T14:09:04.577Z,17.45
2023-03-05T14:11:32.643Z,17.80
2023-03-05T14:14:07.895Z,16.85
2023-03-05T14:16:37.350Z,16.98
2023-03-05T14:19:07.349Z,16.45
2023-03-05T14:21:48.215Z,16.65
2023-03-05T14:24:22.848Z,15.60
2023-03-05T14:26:53.699Z,17.52
2023-03-05T14:29:24.547Z,16.13
2023-03-05T14:31:57.506Z,16.23
2023-03-05T14:34:32.225Z,16.38
2023-03-05T14:37:03.696Z,15.88
2023-03-05T14:39:41.297Z,14.85
2023-03-05T14:42:35.975Z,15.57
2023-03-05T14:45:14.394Z,15.70
2023-03-05T14:47:44.073Z,16.77
2023-03-05T14:50:16.805Z,16.27
2023-03-05T14:52:45.573Z,17.15
2023-03-05T14:55:16.769Z,15.23
2023-03-05T14:57:45.128Z,15.90
2023-03-05T15:00:17.700Z,16.10
2023-03-05T15:02:47.148Z,15.60
2023-03-05T15:05:15.415Z,11.63
2023-03-05T15:07:44.547Z,13.35
2023-03-05T15:10:15.214Z,13.00
2023-03-05T15:12:44.320Z,15.20
2023-03-05T15:15:14.227Z,13.70
2023-03-05T15:17:44.271Z,8.18
2023-03-05T15:20:17.339Z,6.03
2023-03-05T15:22:45.341Z,14.30
2023-03-05T15:25:13.779Z,8.93
2023-03-05T15:27:41.964Z,14.95
2023-03-05T15:30:22.219Z,14.60
2023-03-05T15:32:50.819Z,15.30
2023-03-05T15:35:20.685Z,12.57
2023-03-05T15:37:48.818Z,14.25
2023-03-05T15:40:17.245Z,14.48
2023-03-05T15:42:45.544Z,15.68
2023-03-05T15:45:13.604Z,14.73
2023-03-05T15:47:41.732Z,13.65
2023-03-05T15:50:12.132Z,13.48
2023-03-05T15:52:41.648Z,13.50
2023-03-05T15:55:11.118Z,15.57
2023-03-05T15:57:43.723Z,13.98
2023-03-05T16:00:13.120Z,18.58
2023-03-05T16:02:41.270Z,16.08
2023-03-05T16:05:10.560Z,14.05
2023-03-05T16:07:43.309Z,15.35
2023-03-05T16:10:17.599Z,19.23
2023-03-05T16:12:48.600Z,15.73
2023-03-05T16:15:19.649Z,13.73
2023-03-05T16:17:51.980Z,12.75
2023-03-05T16:20:20.847Z,14.63
2023-03-05T16:22:50.634Z,12.95
2023-03-05T16:25:19.121Z,12.35
2023-03-05T16:27:47.135Z,12.27
2023-03-05T16:30:16.563Z,13.98
2023-03-05T16:32:44.922Z,11.80
2023-03-05T16:35:13.336Z,13.40
2023-03-05T16:37:42.109Z,13.73
2023-03-05T16:40:15.221Z,12.82
2023-03-05T16:42:43.545Z,13.30
2023-03-05T16:45:13.110Z,13.38
2023-03-05T16:47:41.981Z,13.18
2023-03-05T16:50:11.631Z,14.82
2023-03-05T16:52:39.795Z,14.50
2023-03-05T16:55:08.615Z,15.63
2023-03-05T16:57:39.538Z,14.88
2023-03-05T17:00:09.278Z,16.70
2023-03-05T17:02:37.310Z,18.60
2023-03-05T17:05:05.993Z,15.73
2023-03-05T17:07:34.014Z,16.10
2023-03-05T17:10:02.045Z,16.48
2023-03-05T17:12:30.174Z,15.80
2023-03-05T17:14:59.692Z,17.67
2023-03-05T17:17:27.730Z,16.40
2023-03-05T17:19:55.753Z,18.20
2023-03-05T17:22:23.773Z,16.05
2023-03-05T17:24:51.837Z,14.73
2023-03-05T17:27:22.724Z,13.70
2023-03-05T17:29:50.693Z,13.77
2023-03-05T17:32:20.161Z,14.60
2023-03-05T17:34:48.329Z,16.23
2023-03-05T17:37:19.208Z,16.23
2023-03-05T17:39:47.326Z,16.85
2023-03-05T17:42:15.896Z,13.75
2023-03-05T17:44:43.927Z,13.07
2023-03-05T17:47:11.935Z,16.67
2023-03-05T17:49:41.692Z,16.30
2023-03-05T17:52:09.732Z,22.30
2023-03-05T17:54:37.874Z,16.73
2023-03-05T17:57:06.045Z,24.00
2023-03-05T17:59:34.081Z,17.70
2023-03-05T18:02:02.318Z,15.18
2023-03-05T18:04:30.323Z,14.18
2023-03-05T18:06:59.739Z,12.32
2023-03-05T18:09:27.816Z,13.82
2023-03-05T18:11:55.855Z,15.45
2023-03-05T18:14:24.024Z,12.50
2023-03-05T18:16:52.106Z,15.25
2023-03-05T18:19:20.720Z,14.05
2023-03-05T18:21:50.829Z,14.85
2023-03-05T18:24:20.243Z,15.27
2023-03-05T18:26:48.214Z,14.38
2023-03-05T18:29:18.651Z,15.90
2023-03-05T18:31:46.831Z,15.23
2023-03-05T18:34:14.917Z,14.90
2023-03-05T18:36:42.978Z,15.85
2023-03-05T18:39:12.810Z,15.68
2023-03-05T18:41:43.133Z,6.28
2023-03-05T18:44:11.396Z,16.80
2023-03-05T18:46:39.476Z,14.38
2023-03-05T18:49:09.405Z,15.38
2023-03-05T18:51:37.967Z,15.68
2023-03-05T18:54:06.051Z,15.93
2023-03-05T18:56:34.096Z,15.25
2023-03-05T18:59:03.548Z,15.23
2023-03-05T19:01:31.880Z,15.20
2023-03-05T19:04:00.214Z,16.92
2023-03-05T19:06:28.300Z,16.05
2023-03-05T19:08:59.531Z,14.48
2023-03-05T19:11:27.640Z,15.40
2023-03-05T19:13:57.026Z,15.07
2023-03-05T19:16:29.389Z,15.82
2023-03-05T19:19:04.026Z,15.80
2023-03-05T19:21:32.695Z,17.10
2023-03-05T19:24:00.853Z,16.48
2023-03-05T19:26:28.978Z,16.33
2023-03-05T19:28:57.012Z,15.88
2023-03-05T19:31:26.500Z,15.75
2023-03-05T19:33:55.579Z,14.90
2023-03-05T19:36:23.689Z,14.90
2023-03-05T19:38:51.810Z,15.57
2023-03-05T19:41:21.838Z,17.92
2023-03-05T19:43:50.642Z,19.02
2023-03-05T19:46:18.870Z,19.13
2023-03-05T19:48:48.458Z,16.55
2023-03-05T19:51:19.231Z,20.73
2023-03-05T19:53:48.126Z,16.08
2023-03-05T19:56:17.781Z,18.38
2023-03-05T19:58:47.671Z,16.75
2023-03-05T20:01:17.410Z,15.98
2023-03-05T20:03:46.623Z,14.52
2023-03-05T20:06:16.369Z,14.50
2023-03-05T20:08:44.598Z,12.18
2023-03-05T20:11:13.607Z,12.93
2023-03-05T20:13:42.010Z,14.50
2023-03-05T20:16:17.066Z,12.80
2023-03-05T20:18:46.176Z,10.07
2023-03-05T20:21:21.655Z,9.73
2023-03-05T20:23:50.150Z,12.32
2023-03-05T20:26:18.273Z,16.15
2023-03-05T20:28:46.809Z,14.75
2023-03-05T20:31:15.039Z,13.07
2023-03-05T20:33:43.097Z,13.43
2023-03-05T20:36:11.461Z,12.07
2023-03-05T20:38:40.983Z,12.15
2023-03-05T20:41:11.397Z,9.48
2023-03-05T20:43:44.747Z,9.20
2023-03-05T20:46:16.720Z,9.75
2023-03-05T20:48:45.809Z,9.20
2023-03-05T20:51:16.056Z,8.32
2023-03-05T20:53:45.723Z,9.48
2023-03-05T20:56:14.388Z,9.10
2023-03-05T20:58:42.498Z,6.90
2023-03-05T21:01:10.616Z,7.82
2023-03-05T21:03:38.921Z,7.57
2023-03-05T21:06:07.815Z,7.55
2023-03-05T21:08:35.987Z,9.25
2023-03-05T21:11:08.962Z,8.43
2023-03-05T21:13:37.384Z,8.55
2023-03-05T21:16:08.549Z,9.53
2023-03-05T21:18:37.202Z,9.13
2023-03-05T21:21:05.447Z,8.27
2023-03-05T21:23:33.752Z,11.63
2023-03-05T21:26:04.151Z,12.75
2023-03-05T21:28:33.735Z,12.55
2023-03-05T21:31:08.360Z,12.10
2023-03-05T21:33:36.638Z,12.47
2023-03-05T21:36:05.202Z,12.87
2023-03-05T21:38:34.237Z,13.47
2023-03-05T21:41:03.299Z,13.23
2023-03-05T21:43:33.107Z,12.63
2023-03-05T21:46:03.176Z,13.83
2023-03-05T21:48:31.961Z,12.67
2023-03-05T21:51:00.513Z,9.93
2023-03-05T21:53:28.625Z,12.50
2023-03-05T21:56:05.264Z,16.00
2023-03-05T21:58:36.145Z,13.10
2023-03-05T22:01:04.475Z,14.17
2023-03-05T22:03:32.654Z,12.00
2023-03-05T22:06:01.075Z,12.23
2023-03-05T22:08:30.227Z,12.03
2023-03-05T22:10:58.276Z,11.93
2023-03-05T22:13:26.419Z,12.57
2023-03-05T22:15:57.276Z,11.97
2023-03-05T22:18:27.190Z,12.40
2023-03-05T22:20:56.320Z,12.55
2023-03-05T22:23:27.323Z,12.17
2023-03-05T22:25:58.926Z,12.87
2023-03-05T22:28:28.154Z,12.23
2023-03-05T22:30:57.926Z,12.07
2023-03-05T22:33:27.034Z,11.73
2023-03-05T22:35:55.282Z,12.37
2023-03-05T22:38:23.561Z,12.57
2023-03-05T22:40:52.315Z,11.30
2023-03-05T22:43:20.821Z,12.17
2023-03-05T22:45:48.994Z,11.37
2023-03-05T22:48:18.439Z,12.03
2023-03-05T22:50:46.474Z,12.53
2023-03-05T22:53:14.548Z,11.60
2023-03-05T22:55:43.410Z,11.60
2023-03-05T22:58:11.394Z,11.07
2023-03-05T23:00:39.455Z,11.07
2023-03-05T23:03:07.553Z,10.93
2023-03-05T23:05:39.367Z,10.13
2023-03-05T23:08:07.568Z,11.33
2023-03-05T23:10:35.715Z,11.97
2023-03-05T23:13:03.968Z,10.70
2023-03-05T23:15:35.501Z,11.17
2023-03-05T23:18:04.482Z,11.60
2023-03-05T23:20:35.170Z,11.77
2023-03-05T23:23:05.338Z,11.43
2023-03-05T23:25:36.575Z,10.20
2023-03-05T23:28:05.291Z,10.43
2023-03-05T23:30:34.713Z,10.37
2023-03-05T23:33:06.555Z,10.50
2023-03-05T23:35:36.808Z,10.83
2023-03-05T23:38:07.801Z,10.40
2023-03-05T23:40:38.365Z,10.10
2023-03-05T23:43:06.619Z,10.27
2023-03-05T23:45:34.904Z,10.30
2023-03-05T23:48:02.976Z,10.83
2023-03-05T23:50:33.111Z,10.67
2023-03-05T23:53:02.357Z,11.20
2023-03-05T23:55:34.304Z,10.80
2023-03-05T23:58:02.598Z,9.70
